Terminal Aerodrome Forecast
Issued by NWS

Home | Current Version | Previous Version | Graphics & Text | Print | Product List | Glossary On
Versions: 1 2 3 4 5 6 7 8 9 10 11 12 13 14 15 16 17 18 19 20 21 22
000
FTUS43 KGRB 180520
TAFATW
TAF
KATW 180520Z 1806/1906 VRB03KT 5SM -DZ BR OVC004
     FM181000 35010KT 4SM -DZ BR OVC008
     FM181400 35014G22KT P6SM SCT010 OVC018
     FM181800 35015G23KT P6SM BKN028
     FM190100 31014KT P6SM BKN035=

USA.gov is the U.S. government's official web portal to all federal, state and local government web resources and services.